createdAt,value
2023-08-14T00:00:31.603Z,75.90
2023-08-14T00:02:03.755Z,76.00
2023-08-14T00:03:35.527Z,76.00
2023-08-14T00:05:09.830Z,76.00
2023-08-14T00:06:41.849Z,76.00
2023-08-14T00:08:13.555Z,76.10
2023-08-14T00:09:45.261Z,76.00
2023-08-14T00:11:17.481Z,76.00
2023-08-14T00:12:49.293Z,75.90
2023-08-14T00:14:21.039Z,75.90
2023-08-14T00:15:52.813Z,76.00
2023-08-14T00:17:24.735Z,76.00
2023-08-14T00:18:56.524Z,76.10
2023-08-14T00:20:28.299Z,76.00
2023-08-14T00:22:00.055Z,76.10
2023-08-14T00:23:32.003Z,76.10
2023-08-14T00:25:03.916Z,76.10
2023-08-14T00:26:35.656Z,76.10
2023-08-14T00:28:07.827Z,76.10
2023-08-14T00:29:39.565Z,76.10
2023-08-14T00:31:11.367Z,76.10
2023-08-14T00:32:43.172Z,76.00
2023-08-14T00:34:14.932Z,76.00
2023-08-14T00:35:46.709Z,76.20
2023-08-14T00:37:18.519Z,76.10
2023-08-14T00:38:51.233Z,76.10
2023-08-14T00:40:23.062Z,76.20
2023-08-14T00:41:54.997Z,76.10
2023-08-14T00:43:26.795Z,76.10
2023-08-14T00:44:58.524Z,76.10
2023-08-14T00:46:32.379Z,76.10
2023-08-14T00:48:05.273Z,76.10
2023-08-14T00:49:37.467Z,76.00
2023-08-14T00:51:09.347Z,76.10
2023-08-14T00:52:44.401Z,76.20
2023-08-14T00:54:16.351Z,76.10
2023-08-14T00:55:48.230Z,76.00
2023-08-14T00:57:20.117Z,76.00
2023-08-14T00:58:52.461Z,76.00
2023-08-14T01:00:24.907Z,76.10
2023-08-14T01:01:57.463Z,76.20
2023-08-14T01:03:29.693Z,76.30
2023-08-14T01:05:01.975Z,76.20
2023-08-14T01:06:33.748Z,76.30
2023-08-14T01:08:05.827Z,76.30
2023-08-14T01:09:37.980Z,76.40
2023-08-14T01:11:22.654Z,76.30
2023-08-14T01:13:15.633Z,76.40
2023-08-14T01:14:53.720Z,76.30
2023-08-14T01:16:31.283Z,76.40
2023-08-14T01:18:04.760Z,76.30
2023-08-14T01:19:41.697Z,76.40
2023-08-14T01:21:37.039Z,76.40
2023-08-14T01:23:43.043Z,76.40
2023-08-14T01:25:27.932Z,76.40
2023-08-14T01:27:00.496Z,76.30
2023-08-14T01:28:32.963Z,76.40
2023-08-14T01:30:05.053Z,76.30
2023-08-14T01:31:36.762Z,76.40
2023-08-14T01:33:08.915Z,76.30
2023-08-14T01:34:40.767Z,76.30
2023-08-14T01:36:22.967Z,76.30
2023-08-14T01:38:08.370Z,76.30
2023-08-14T01:39:50.131Z,76.30
2023-08-14T01:41:34.460Z,76.30
2023-08-14T01:43:15.778Z,76.40
2023-08-14T01:44:52.293Z,76.30
2023-08-14T01:46:26.407Z,76.30
2023-08-14T01:47:59.959Z,76.30
2023-08-14T01:49:32.662Z,76.30
2023-08-14T01:51:05.885Z,76.40
2023-08-14T01:52:37.584Z,76.30
2023-08-14T01:54:10.219Z,76.30
2023-08-14T01:55:41.943Z,76.30
2023-08-14T01:57:13.654Z,76.40
2023-08-14T01:58:45.446Z,76.40
2023-08-14T02:00:17.223Z,76.30
2023-08-14T02:01:49.696Z,76.20
2023-08-14T02:03:21.722Z,76.30
2023-08-14T02:04:54.215Z,76.30
2023-08-14T02:06:26.122Z,76.40
2023-08-14T02:07:57.954Z,76.40
2023-08-14T02:09:29.688Z,76.30
2023-08-14T02:11:07.576Z,76.30
2023-08-14T02:12:39.407Z,76.30
2023-08-14T02:14:13.937Z,76.40
2023-08-14T02:15:47.061Z,76.40
2023-08-14T02:17:19.029Z,76.30
2023-08-14T02:18:50.757Z,76.30
2023-08-14T02:20:22.946Z,76.30
2023-08-14T02:21:54.749Z,76.30
2023-08-14T02:23:26.497Z,76.20
2023-08-14T02:24:58.331Z,76.40
2023-08-14T02:26:30.043Z,76.30
2023-08-14T02:28:01.788Z,76.40
2023-08-14T02:29:33.582Z,76.40
2023-08-14T02:31:06.108Z,76.40
2023-08-14T02:32:39.951Z,76.40
2023-08-14T02:34:11.690Z,76.50
2023-08-14T02:35:43.460Z,76.50
2023-08-14T02:37:16.735Z,76.50
2023-08-14T02:38:48.438Z,76.50
2023-08-14T02:40:20.167Z,76.50
2023-08-14T02:41:51.884Z,76.50
2023-08-14T02:43:23.625Z,76.50
2023-08-14T02:44:55.341Z,76.60
2023-08-14T02:46:29.358Z,76.60
2023-08-14T02:48:01.191Z,76.60
2023-08-14T02:49:34.587Z,76.60
2023-08-14T02:51:06.369Z,76.60
2023-08-14T02:52:38.105Z,76.70
2023-08-14T02:54:09.890Z,76.70
2023-08-14T02:55:41.787Z,76.80
2023-08-14T02:57:13.531Z,76.80
2023-08-14T02:58:45.235Z,76.90
2023-08-14T03:00:17.131Z,76.90
2023-08-14T03:01:49.162Z,76.80
2023-08-14T03:03:20.902Z,76.90
2023-08-14T03:04:52.769Z,76.80
2023-08-14T03:06:24.676Z,76.80
2023-08-14T03:07:56.403Z,76.80
2023-08-14T03:09:28.118Z,76.80
2023-08-14T03:10:59.833Z,76.80
2023-08-14T03:12:31.571Z,76.80
2023-08-14T03:14:03.404Z,76.80
2023-08-14T03:15:35.118Z,76.90
2023-08-14T03:17:07.338Z,76.90
2023-08-14T03:18:39.269Z,76.90
2023-08-14T03:20:11.390Z,76.90
2023-08-14T03:21:43.221Z,76.90
2023-08-14T03:23:14.976Z,76.90
2023-08-14T03:24:46.691Z,77.00
2023-08-14T03:26:18.395Z,76.90
2023-08-14T03:27:50.109Z,77.00
2023-08-14T03:29:22.553Z,77.00
2023-08-14T03:30:55.910Z,77.00
2023-08-14T03:32:29.397Z,77.00
2023-08-14T03:34:01.478Z,77.10
2023-08-14T03:35:33.234Z,77.10
2023-08-14T03:37:04.961Z,77.00
2023-08-14T03:38:37.555Z,77.10
2023-08-14T03:40:09.815Z,77.10
2023-08-14T03:41:41.530Z,77.10
2023-08-14T03:43:13.439Z,77.10
2023-08-14T03:44:45.435Z,77.10
2023-08-14T03:46:17.264Z,77.10
2023-08-14T03:47:50.243Z,77.10
2023-08-14T03:49:21.992Z,77.10
2023-08-14T03:50:53.707Z,77.00
2023-08-14T03:52:25.449Z,77.10
2023-08-14T03:53:59.333Z,77.00
2023-08-14T03:55:31.044Z,77.10
2023-08-14T03:57:02.816Z,77.00
2023-08-14T03:58:35.345Z,77.00
2023-08-14T04:00:08.133Z,77.00
2023-08-14T04:01:44.681Z,77.00
2023-08-14T04:03:16.593Z,77.00
2023-08-14T04:04:48.410Z,77.10
2023-08-14T04:06:20.751Z,77.10
2023-08-14T04:07:52.487Z,77.10
2023-08-14T04:09:24.220Z,77.10
2023-08-14T04:10:58.414Z,77.10
2023-08-14T04:12:30.142Z,77.10
2023-08-14T04:14:01.887Z,77.10
2023-08-14T04:15:33.811Z,77.10
2023-08-14T04:17:05.874Z,77.10
2023-08-14T04:18:40.263Z,77.20
2023-08-14T04:20:15.658Z,77.10
2023-08-14T04:21:49.540Z,77.00
2023-08-14T04:23:23.357Z,77.10
2023-08-14T04:24:55.045Z,77.10
2023-08-14T04:26:26.765Z,77.00
2023-08-14T04:27:58.542Z,77.10
2023-08-14T04:29:30.250Z,77.10
2023-08-14T04:31:01.958Z,77.10
2023-08-14T04:32:34.483Z,77.10
2023-08-14T04:34:07.599Z,77.10
2023-08-14T04:35:40.586Z,77.10
2023-08-14T04:37:12.813Z,77.00
2023-08-14T04:38:44.510Z,77.10
2023-08-14T04:40:16.225Z,77.10
2023-08-14T04:41:47.996Z,77.10
2023-08-14T04:43:21.097Z,77.10
2023-08-14T04:44:52.808Z,77.00
2023-08-14T04:46:38.381Z,77.10
2023-08-14T04:48:17.394Z,77.10
2023-08-14T04:49:49.826Z,77.10
2023-08-14T04:51:21.605Z,77.10
2023-08-14T04:52:53.344Z,77.20
2023-08-14T04:54:28.219Z,77.20
2023-08-14T04:56:00.190Z,77.10
2023-08-14T04:57:32.959Z,77.20
2023-08-14T04:59:04.799Z,77.30
2023-08-14T05:00:37.009Z,77.20
2023-08-14T05:02:10.578Z,77.30
2023-08-14T05:03:43.328Z,77.40
2023-08-14T05:05:15.225Z,77.30
2023-08-14T05:06:48.385Z,77.40
2023-08-14T05:08:20.636Z,77.30
2023-08-14T05:09:52.390Z,77.30
2023-08-14T05:11:25.009Z,77.30
2023-08-14T05:12:56.800Z,77.40
2023-08-14T05:14:28.680Z,77.40
2023-08-14T05:16:08.298Z,77.50
2023-08-14T05:17:41.598Z,77.20
2023-08-14T05:19:13.426Z,77.40
2023-08-14T05:20:48.835Z,77.50
2023-08-14T05:22:21.177Z,77.50
2023-08-14T05:23:53.116Z,77.70
2023-08-14T05:25:24.866Z,77.60
2023-08-14T05:26:56.582Z,77.60
2023-08-14T05:28:28.304Z,77.60
2023-08-14T05:30:00.038Z,77.60
2023-08-14T05:31:31.842Z,77.70
2023-08-14T05:33:04.787Z,77.80
2023-08-14T05:34:37.077Z,77.60
2023-08-14T05:36:08.771Z,77.70
2023-08-14T05:37:43.910Z,77.80
2023-08-14T05:39:15.636Z,77.80
2023-08-14T05:40:47.427Z,77.80
2023-08-14T05:42:19.359Z,77.90
2023-08-14T05:43:51.470Z,77.90
2023-08-14T05:45:23.475Z,77.90
2023-08-14T05:46:55.460Z,77.90
2023-08-14T05:48:27.209Z,77.90
2023-08-14T05:49:58.984Z,77.80
2023-08-14T05:51:30.831Z,77.90
2023-08-14T05:53:07.529Z,78.00
2023-08-14T05:54:40.742Z,78.00
2023-08-14T05:56:12.925Z,78.10
2023-08-14T05:57:44.651Z,78.10
2023-08-14T05:59:16.405Z,78.10
2023-08-14T06:00:48.471Z,78.20
2023-08-14T06:02:20.429Z,78.10
2023-08-14T06:03:52.628Z,78.20
2023-08-14T06:05:24.612Z,78.30
2023-08-14T06:06:56.375Z,77.90
2023-08-14T06:08:28.549Z,77.90
2023-08-14T06:10:00.306Z,78.10
2023-08-14T06:11:32.068Z,78.10
2023-08-14T06:13:03.977Z,78.00
2023-08-14T06:14:35.720Z,78.10
2023-08-14T06:16:07.458Z,78.30
2023-08-14T06:17:41.602Z,78.40
2023-08-14T06:19:13.377Z,78.20
2023-08-14T06:20:45.076Z,77.80
2023-08-14T06:22:18.433Z,77.60
2023-08-14T06:23:50.371Z,77.80
2023-08-14T06:25:22.136Z,78.00
2023-08-14T06:26:53.877Z,77.90
2023-08-14T06:28:25.630Z,78.10
2023-08-14T06:29:57.544Z,78.20
2023-08-14T06:31:29.362Z,78.20
2023-08-14T06:33:01.672Z,78.30
2023-08-14T06:34:34.568Z,78.20
2023-08-14T06:36:06.718Z,78.10
2023-08-14T06:37:38.504Z,78.40
2023-08-14T06:39:10.244Z,78.50
2023-08-14T06:40:42.022Z,78.60
2023-08-14T06:42:13.780Z,78.70
2023-08-14T06:43:46.223Z,78.70
2023-08-14T06:45:18.144Z,78.50
2023-08-14T06:46:50.081Z,78.70
2023-08-14T06:48:21.937Z,78.80
2023-08-14T06:49:53.696Z,78.80
2023-08-14T06:51:25.438Z,78.80
2023-08-14T06:52:57.297Z,78.80
2023-08-14T06:54:29.107Z,78.80
2023-08-14T06:56:01.034Z,78.80
2023-08-14T06:57:32.787Z,78.80
2023-08-14T06:59:04.685Z,79.00
2023-08-14T07:00:36.435Z,79.10
2023-08-14T07:02:08.305Z,79.00
2023-08-14T07:03:40.201Z,79.00
2023-08-14T07:05:12.497Z,79.00
2023-08-14T07:06:44.263Z,79.00
2023-08-14T07:08:16.054Z,79.00
2023-08-14T07:09:47.770Z,79.20
2023-08-14T07:11:19.587Z,79.10
2023-08-14T07:12:51.565Z,79.00
2023-08-14T07:14:23.310Z,79.00
2023-08-14T07:15:55.081Z,78.90
2023-08-14T07:17:29.841Z,78.90
2023-08-14T07:19:01.696Z,79.00
2023-08-14T07:20:33.897Z,79.00
2023-08-14T07:22:05.764Z,79.10
2023-08-14T07:23:37.691Z,79.10
2023-08-14T07:25:09.768Z,79.20
2023-08-14T07:26:42.150Z,79.20
2023-08-14T07:28:14.342Z,79.10
2023-08-14T07:29:46.273Z,79.10
2023-08-14T07:31:18.047Z,79.30
2023-08-14T07:32:50.122Z,79.20
2023-08-14T07:34:21.905Z,79.00
2023-08-14T07:35:53.788Z,78.80
2023-08-14T07:37:25.784Z,79.10
2023-08-14T07:38:57.631Z,79.20
2023-08-14T07:40:29.382Z,79.20
2023-08-14T07:42:01.151Z,79.00
2023-08-14T07:43:32.892Z,79.10
2023-08-14T07:45:04.989Z,79.00
2023-08-14T07:46:36.736Z,79.00
2023-08-14T07:48:08.826Z,79.00
2023-08-14T07:49:40.693Z,79.00
2023-08-14T07:51:12.675Z,78.80
2023-08-14T07:52:44.398Z,78.60
2023-08-14T07:54:16.163Z,78.50
2023-08-14T07:55:50.586Z,78.40
2023-08-14T07:57:22.366Z,78.40
2023-08-14T07:58:54.114Z,78.30
2023-08-14T08:00:25.951Z,78.30
2023-08-14T08:01:57.749Z,78.20
2023-08-14T08:03:29.472Z,78.30
2023-08-14T08:05:01.236Z,78.20
2023-08-14T08:06:43.440Z,78.10
2023-08-14T08:08:16.033Z,78.00
2023-08-14T08:09:48.753Z,77.90
2023-08-14T08:11:20.543Z,77.90
2023-08-14T08:12:52.239Z,77.90
2023-08-14T08:14:23.992Z,77.90
2023-08-14T08:15:56.013Z,77.90
2023-08-14T08:17:27.780Z,77.80
2023-08-14T08:18:59.798Z,77.90
2023-08-14T08:20:31.661Z,77.80
2023-08-14T08:22:03.395Z,77.80
2023-08-14T08:23:35.151Z,77.70
2023-08-14T08:25:10.215Z,77.70
2023-08-14T08:26:42.043Z,77.70
2023-08-14T08:28:14.076Z,77.70
2023-08-14T08:29:46.414Z,77.70
2023-08-14T08:31:18.227Z,77.70
2023-08-14T08:32:50.186Z,77.70
2023-08-14T08:34:22.035Z,77.70
2023-08-14T08:35:53.816Z,77.70
2023-08-14T08:37:25.556Z,77.70
2023-08-14T08:38:57.291Z,77.70
2023-08-14T08:40:30.518Z,77.70
2023-08-14T08:42:03.949Z,77.80
2023-08-14T08:43:35.762Z,77.80
2023-08-14T08:45:10.285Z,77.90
2023-08-14T08:46:53.177Z,77.90
2023-08-14T08:48:25.474Z,77.90
2023-08-14T08:50:02.597Z,78.00
2023-08-14T08:51:40.376Z,78.00
2023-08-14T08:53:12.824Z,78.10
2023-08-14T08:54:44.659Z,78.10
2023-08-14T08:56:16.647Z,78.20
2023-08-14T08:57:49.785Z,78.20
2023-08-14T08:59:22.686Z,78.30
2023-08-14T09:00:55.859Z,78.30
2023-08-14T09:02:28.304Z,78.50
2023-08-14T09:04:00.196Z,78.60
2023-08-14T09:05:33.330Z,78.60
2023-08-14T09:07:06.449Z,78.60
2023-08-14T09:08:38.344Z,78.60
2023-08-14T09:10:10.264Z,78.70
2023-08-14T09:11:42.143Z,78.70
2023-08-14T09:14:59.995Z,78.90
2023-08-14T09:16:31.737Z,78.90
2023-08-14T09:18:03.928Z,79.00
2023-08-14T09:19:35.637Z,79.00
2023-08-14T09:21:08.580Z,79.00
2023-08-14T09:22:41.025Z,79.20
2023-08-14T09:24:15.202Z,79.20
2023-08-14T09:25:47.634Z,79.30
2023-08-14T09:27:20.321Z,79.40
2023-08-14T09:28:53.303Z,79.40
2023-08-14T09:30:27.366Z,79.50
2023-08-14T09:32:00.596Z,79.40
2023-08-14T09:33:33.060Z,79.40
2023-08-14T09:35:07.673Z,79.60
2023-08-14T09:36:40.791Z,79.70
2023-08-14T09:38:16.365Z,79.70
2023-08-14T09:39:48.191Z,79.60
2023-08-14T09:41:20.476Z,79.70
2023-08-14T09:42:52.238Z,79.70
2023-08-14T09:44:25.006Z,79.80
2023-08-14T09:45:58.398Z,79.90
2023-08-14T09:47:32.056Z,80.00
2023-08-14T09:49:04.089Z,79.90
2023-08-14T09:50:36.850Z,80.00
2023-08-14T09:52:08.682Z,80.00
2023-08-14T09:53:45.855Z,80.00
2023-08-14T09:55:18.515Z,80.20
2023-08-14T09:56:53.119Z,80.10
2023-08-14T09:58:24.983Z,80.20
2023-08-14T09:59:57.074Z,80.20
2023-08-14T10:01:29.454Z,80.20
2023-08-14T10:03:04.232Z,80.30
2023-08-14T10:04:37.201Z,80.40
2023-08-14T10:06:11.465Z,80.30
2023-08-14T10:07:44.488Z,80.40
2023-08-14T10:09:18.343Z,80.30
2023-08-14T10:11:05.467Z,80.30
2023-08-14T10:12:51.914Z,80.40
2023-08-14T10:14:25.808Z,80.30
2023-08-14T10:16:00.731Z,80.30
2023-08-14T10:17:37.623Z,80.30
2023-08-14T10:19:14.134Z,80.30
2023-08-14T10:20:49.263Z,80.40
2023-08-14T10:22:22.218Z,80.40
2023-08-14T10:23:55.705Z,80.40
2023-08-14T10:25:28.902Z,80.40
2023-08-14T10:27:03.042Z,80.40
2023-08-14T10:28:36.908Z,80.50
2023-08-14T10:30:10.119Z,80.50
2023-08-14T10:31:43.161Z,80.50
2023-08-14T10:33:16.786Z,80.50
2023-08-14T10:34:49.787Z,80.50
2023-08-14T10:36:23.355Z,80.40
2023-08-14T10:38:08.464Z,80.40
2023-08-14T10:39:42.072Z,80.40
2023-08-14T10:41:17.544Z,80.30
2023-08-14T10:42:55.927Z,80.30
2023-08-14T10:44:37.047Z,80.30
2023-08-14T10:46:10.728Z,80.30
2023-08-14T10:47:42.917Z,80.20
2023-08-14T10:49:15.315Z,80.20
2023-08-14T10:50:49.687Z,80.10
2023-08-14T10:52:21.564Z,80.10
2023-08-14T10:54:08.034Z,80.00
2023-08-14T10:55:47.857Z,80.00
2023-08-14T10:57:28.587Z,80.00
2023-08-14T10:59:00.298Z,79.90
2023-08-14T11:00:32.148Z,79.90
2023-08-14T11:02:22.170Z,79.90
2023-08-14T11:04:06.664Z,79.80
2023-08-14T11:05:40.126Z,79.80
2023-08-14T11:07:12.833Z,79.80
2023-08-14T11:08:46.272Z,79.80
2023-08-14T11:10:18.749Z,79.70
2023-08-14T11:11:50.507Z,79.60
2023-08-14T11:13:23.321Z,79.50
2023-08-14T11:14:56.308Z,79.50
2023-08-14T11:16:29.241Z,79.50
2023-08-14T11:18:02.341Z,79.40
2023-08-14T11:19:38.497Z,79.30
2023-08-14T11:21:30.079Z,79.20
2023-08-14T11:23:02.929Z,79.20
2023-08-14T11:24:35.036Z,79.20
2023-08-14T11:26:06.945Z,79.20
2023-08-14T11:27:38.701Z,79.20
2023-08-14T11:29:10.423Z,79.20
2023-08-14T11:30:42.269Z,79.20
2023-08-14T11:32:15.059Z,79.10
2023-08-14T11:33:46.813Z,79.10
2023-08-14T11:35:19.570Z,79.00
2023-08-14T11:38:31.657Z,79.00
2023-08-14T11:40:05.795Z,78.90
2023-08-14T11:41:37.553Z,78.80
2023-08-14T11:43:10.859Z,78.80
2023-08-14T11:44:42.711Z,78.80
2023-08-14T11:46:14.584Z,78.70
2023-08-14T11:47:48.844Z,78.70
2023-08-14T11:49:21.059Z,78.70
2023-08-14T11:50:52.870Z,78.60
2023-08-14T11:52:26.584Z,78.60
2023-08-14T11:54:00.208Z,78.60
2023-08-14T11:55:32.772Z,78.60
2023-08-14T11:57:06.072Z,78.50
2023-08-14T11:58:38.398Z,78.50
2023-08-14T12:00:16.325Z,78.50
2023-08-14T12:01:49.505Z,78.50
2023-08-14T12:03:21.411Z,78.50
2023-08-14T12:05:03.280Z,78.50
2023-08-14T12:06:35.878Z,78.50
2023-08-14T12:08:07.641Z,78.50
2023-08-14T12:09:40.089Z,78.50
2023-08-14T12:11:17.693Z,78.50
2023-08-14T12:12:55.428Z,78.40
2023-08-14T12:14:39.460Z,78.40
2023-08-14T12:16:15.067Z,78.40
2023-08-14T12:17:51.405Z,78.40
2023-08-14T12:19:23.186Z,78.30
2023-08-14T12:20:55.403Z,78.40
2023-08-14T12:22:28.336Z,78.30
2023-08-14T12:24:02.019Z,78.20
2023-08-14T12:25:33.773Z,78.30
2023-08-14T12:27:13.702Z,78.30
2023-08-14T12:28:45.654Z,78.30
2023-08-14T12:30:17.385Z,78.20
2023-08-14T12:31:49.247Z,78.20
2023-08-14T12:33:21.072Z,78.20
2023-08-14T12:34:53.630Z,78.20
2023-08-14T12:36:25.378Z,78.20
2023-08-14T12:37:57.098Z,78.20
2023-08-14T12:39:28.913Z,78.20
2023-08-14T12:41:00.906Z,78.10
2023-08-14T12:42:32.858Z,78.10
2023-08-14T12:44:07.671Z,78.10
2023-08-14T12:45:39.775Z,78.10
2023-08-14T12:47:11.820Z,78.10
2023-08-14T12:48:43.616Z,78.10
2023-08-14T12:50:15.362Z,78.20
2023-08-14T12:51:47.501Z,78.10
2023-08-14T12:53:19.270Z,78.10
2023-08-14T12:55:04.417Z,78.00
2023-08-14T12:56:38.052Z,78.00
2023-08-14T12:59:50.819Z,78.00
2023-08-14T13:01:24.129Z,78.00
2023-08-14T13:03:01.681Z,78.00
2023-08-14T13:04:36.344Z,78.00
2023-08-14T13:06:08.745Z,78.00
2023-08-14T13:07:40.531Z,78.00
2023-08-14T13:09:13.709Z,78.00
2023-08-14T13:10:45.476Z,77.90
2023-08-14T13:12:17.213Z,77.90
2023-08-14T13:13:50.242Z,77.90
2023-08-14T13:15:21.936Z,77.90
2023-08-14T13:16:53.713Z,77.90
2023-08-14T13:18:25.571Z,77.90
2023-08-14T13:19:58.459Z,77.90
2023-08-14T13:21:30.634Z,77.80
2023-08-14T13:23:02.395Z,77.80
2023-08-14T13:24:34.146Z,77.80
2023-08-14T13:26:05.886Z,77.80
2023-08-14T13:27:39.655Z,77.80
2023-08-14T13:29:11.829Z,77.80
2023-08-14T13:30:44.753Z,77.80
2023-08-14T13:32:16.921Z,77.80
2023-08-14T13:33:48.904Z,77.80
2023-08-14T13:35:20.650Z,77.80
2023-08-14T13:36:52.370Z,77.80
2023-08-14T13:38:24.154Z,77.70
2023-08-14T13:39:55.871Z,77.80
2023-08-14T13:41:27.705Z,77.70
2023-08-14T13:42:59.488Z,77.70
2023-08-14T13:44:31.199Z,77.70
2023-08-14T13:46:02.979Z,77.60
2023-08-14T13:47:43.610Z,77.60
2023-08-14T13:49:20.020Z,77.50
2023-08-14T13:50:51.734Z,77.50
2023-08-14T13:52:23.429Z,77.50
2023-08-14T13:53:55.173Z,77.50
2023-08-14T13:55:36.127Z,77.50
2023-08-14T13:57:07.891Z,77.40
2023-08-14T13:58:39.714Z,77.50
2023-08-14T14:00:12.135Z,77.40
2023-08-14T14:01:43.895Z,77.40
2023-08-14T14:03:15.779Z,77.40
2023-08-14T14:04:49.988Z,77.40
2023-08-14T14:06:24.781Z,77.40
2023-08-14T14:07:57.668Z,77.40
2023-08-14T14:09:29.988Z,77.40
2023-08-14T14:11:01.936Z,77.40
2023-08-14T14:12:35.878Z,77.40
2023-08-14T14:14:09.223Z,77.40
2023-08-14T14:15:41.724Z,77.40
2023-08-14T14:17:14.268Z,77.30
2023-08-14T14:18:46.241Z,77.30
2023-08-14T14:20:18.227Z,77.40
2023-08-14T14:21:50.198Z,77.40
2023-08-14T14:23:21.958Z,77.30
2023-08-14T14:24:54.874Z,77.30
2023-08-14T14:26:26.583Z,77.30
2023-08-14T14:27:59.495Z,77.20
2023-08-14T14:29:32.030Z,77.20
2023-08-14T14:31:03.919Z,77.20
2023-08-14T14:32:36.286Z,77.20
2023-08-14T14:34:08.434Z,77.20
2023-08-14T14:35:42.398Z,77.20
2023-08-14T14:37:14.142Z,77.20
2023-08-14T14:38:46.051Z,77.20
2023-08-14T14:40:17.885Z,77.10
2023-08-14T14:41:49.834Z,77.10
2023-08-14T14:43:21.562Z,77.00
2023-08-14T14:44:54.573Z,77.00
2023-08-14T14:46:26.668Z,77.00
2023-08-14T14:47:58.453Z,77.00
2023-08-14T14:49:30.218Z,76.90
2023-08-14T14:51:01.982Z,76.90
2023-08-14T14:52:33.750Z,76.90
2023-08-14T14:54:08.701Z,76.90
2023-08-14T14:55:40.458Z,76.90
2023-08-14T14:57:12.210Z,76.90
2023-08-14T14:58:44.141Z,76.80
2023-08-14T15:00:16.344Z,76.90
2023-08-14T15:01:48.132Z,76.80
2023-08-14T15:03:20.359Z,76.80
2023-08-14T15:04:52.188Z,76.80
2023-08-14T15:06:23.948Z,76.80
2023-08-14T15:07:56.830Z,76.80
2023-08-14T15:09:28.805Z,76.80
2023-08-14T15:11:00.562Z,76.70
2023-08-14T15:12:32.284Z,76.70
2023-08-14T15:14:04.072Z,76.70
2023-08-14T15:15:39.175Z,76.70
2023-08-14T15:17:12.443Z,76.70
2023-08-14T15:18:45.990Z,76.70
2023-08-14T15:20:18.235Z,76.70
2023-08-14T15:21:49.946Z,76.80
2023-08-14T15:23:21.704Z,76.70
2023-08-14T15:24:55.395Z,76.70
2023-08-14T15:26:27.132Z,76.70
2023-08-14T15:27:59.812Z,76.70
2023-08-14T15:29:31.583Z,76.70
2023-08-14T15:31:03.513Z,76.70
2023-08-14T15:32:36.693Z,76.70
2023-08-14T15:34:08.453Z,76.70
2023-08-14T15:35:40.358Z,76.70
2023-08-14T15:37:12.306Z,76.70
2023-08-14T15:38:44.116Z,76.70
2023-08-14T15:40:16.414Z,76.70
2023-08-14T15:41:48.255Z,76.70
2023-08-14T15:43:20.049Z,76.70
2023-08-14T15:44:55.718Z,76.70
2023-08-14T15:46:27.583Z,76.70
2023-08-14T15:48:01.067Z,76.70
2023-08-14T15:49:32.879Z,76.60
2023-08-14T15:51:04.636Z,76.70
2023-08-14T15:52:36.403Z,76.70
2023-08-14T15:54:08.187Z,76.60
2023-08-14T15:55:40.135Z,76.60
2023-08-14T15:57:11.875Z,76.70
2023-08-14T15:58:43.667Z,76.70
2023-08-14T16:00:16.234Z,76.70
2023-08-14T16:01:48.050Z,76.70
2023-08-14T16:03:19.779Z,76.70
2023-08-14T16:04:52.402Z,76.70
2023-08-14T16:06:24.143Z,76.70
2023-08-14T16:07:55.854Z,76.80
2023-08-14T16:09:27.692Z,76.90
2023-08-14T16:10:59.448Z,76.80
2023-08-14T16:12:31.157Z,76.90
2023-08-14T16:14:02.911Z,76.80
2023-08-14T16:15:34.619Z,76.90
2023-08-14T16:17:07.239Z,76.90
2023-08-14T16:18:39.009Z,76.90
2023-08-14T16:20:14.201Z,76.90
2023-08-14T16:21:45.970Z,76.90
2023-08-14T16:23:17.762Z,77.00
2023-08-14T16:24:49.488Z,77.00
2023-08-14T16:26:21.314Z,77.00
2023-08-14T16:27:53.229Z,77.00
2023-08-14T16:29:27.016Z,77.00
2023-08-14T16:30:58.857Z,77.00
2023-08-14T16:32:30.691Z,77.10
2023-08-14T16:34:02.541Z,77.10
2023-08-14T16:35:34.298Z,77.20
2023-08-14T16:37:06.703Z,77.20
2023-08-14T16:38:38.471Z,77.20
2023-08-14T16:40:11.080Z,77.20
2023-08-14T16:41:44.401Z,77.20
2023-08-14T16:43:16.123Z,77.20
2023-08-14T16:44:47.862Z,77.30
2023-08-14T16:46:19.604Z,77.30
2023-08-14T16:47:51.360Z,77.30
2023-08-14T16:49:23.281Z,77.30
2023-08-14T16:50:54.993Z,77.30
2023-08-14T16:52:26.698Z,77.30
2023-08-14T16:53:58.522Z,77.40
2023-08-14T16:55:30.308Z,77.40
2023-08-14T16:57:02.029Z,77.40
2023-08-14T16:58:33.737Z,77.40
2023-08-14T17:00:06.757Z,77.40
2023-08-14T17:01:39.041Z,77.40
2023-08-14T17:03:10.944Z,77.40
2023-08-14T17:04:42.772Z,77.40
2023-08-14T17:06:14.472Z,77.50
2023-08-14T17:07:46.211Z,77.50
2023-08-14T17:09:18.935Z,77.50
2023-08-14T17:10:51.678Z,77.50
2023-08-14T17:12:23.442Z,77.50
2023-08-14T17:13:55.693Z,77.50
2023-08-14T17:15:27.682Z,77.50
2023-08-14T17:16:59.481Z,77.60
2023-08-14T17:18:31.272Z,77.50
2023-08-14T17:20:03.088Z,77.50
2023-08-14T17:21:34.791Z,77.60
2023-08-14T17:23:06.522Z,77.60
2023-08-14T17:24:38.367Z,77.60
2023-08-14T17:26:10.166Z,77.60
2023-08-14T17:27:43.253Z,77.60
2023-08-14T17:29:15.429Z,77.60
2023-08-14T17:30:51.743Z,77.70
2023-08-14T17:32:23.457Z,77.70
2023-08-14T17:33:55.177Z,77.70
2023-08-14T17:35:26.882Z,77.70
2023-08-14T17:36:58.663Z,77.70
2023-08-14T17:38:30.501Z,77.70
2023-08-14T17:40:02.390Z,77.80
2023-08-14T17:41:34.866Z,77.80
2023-08-14T17:43:06.740Z,77.80
2023-08-14T17:44:38.523Z,77.70
2023-08-14T17:46:10.425Z,77.80
2023-08-14T17:47:42.229Z,77.80
2023-08-14T17:49:13.972Z,77.80
2023-08-14T17:50:52.757Z,77.80
2023-08-14T17:52:24.661Z,77.80
2023-08-14T17:53:56.511Z,77.80
2023-08-14T17:55:28.555Z,77.90
2023-08-14T17:57:00.330Z,77.80
2023-08-14T17:58:32.186Z,77.90
2023-08-14T18:00:06.219Z,77.90
2023-08-14T18:01:41.770Z,77.90
2023-08-14T18:03:14.331Z,77.90
2023-08-14T18:04:46.211Z,77.90
2023-08-14T18:06:18.440Z,77.90
2023-08-14T18:07:50.270Z,78.00
2023-08-14T18:09:21.991Z,78.00
2023-08-14T18:10:53.764Z,78.00
2023-08-14T18:12:25.574Z,78.00
2023-08-14T18:13:57.265Z,78.00
2023-08-14T18:15:29.015Z,78.00
2023-08-14T18:17:00.810Z,78.00
2023-08-14T18:18:32.526Z,78.00
2023-08-14T18:20:06.585Z,78.00
2023-08-14T18:21:38.447Z,78.40
2023-08-14T18:23:10.303Z,78.60
2023-08-14T18:24:43.803Z,78.80
2023-08-14T18:26:16.104Z,79.20
2023-08-14T18:27:47.967Z,79.30
2023-08-14T18:29:19.669Z,79.40
2023-08-14T18:30:52.320Z,79.50
2023-08-14T18:32:24.126Z,79.70
2023-08-14T18:33:58.790Z,79.80
2023-08-14T18:35:30.495Z,79.90
2023-08-14T18:37:02.306Z,79.90
2023-08-14T18:38:34.043Z,80.00
2023-08-14T18:40:06.550Z,80.10
2023-08-14T18:41:43.753Z,80.10
2023-08-14T18:43:15.554Z,80.10
2023-08-14T18:45:00.476Z,80.20
2023-08-14T18:46:32.561Z,80.00
2023-08-14T18:48:04.496Z,80.10
2023-08-14T18:49:36.345Z,80.20
2023-08-14T18:51:08.229Z,80.10
2023-08-14T18:52:40.561Z,80.30
2023-08-14T18:54:12.280Z,80.30
2023-08-14T18:55:44.066Z,80.30
2023-08-14T18:57:15.895Z,80.40
2023-08-14T18:58:49.295Z,80.50
2023-08-14T19:00:21.287Z,80.50
2023-08-14T19:01:53.044Z,80.60
2023-08-14T19:03:24.777Z,80.70
2023-08-14T19:04:57.045Z,80.80
2023-08-14T19:06:30.624Z,80.90
2023-08-14T19:08:02.340Z,80.90
2023-08-14T19:09:34.335Z,80.90
2023-08-14T19:11:06.177Z,80.90
2023-08-14T19:12:37.952Z,81.10
2023-08-14T19:14:09.765Z,81.10
2023-08-14T19:15:49.575Z,81.00
2023-08-14T19:17:21.487Z,80.90
2023-08-14T19:18:55.064Z,80.90
2023-08-14T19:20:26.794Z,81.00
2023-08-14T19:21:58.697Z,81.00
2023-08-14T19:23:32.778Z,81.20
2023-08-14T19:25:05.086Z,81.10
2023-08-14T19:26:36.871Z,81.10
2023-08-14T19:28:20.998Z,81.30
2023-08-14T19:29:54.120Z,81.20
2023-08-14T19:31:27.106Z,81.20
2023-08-14T19:32:59.019Z,81.10
2023-08-14T19:34:32.307Z,81.10
2023-08-14T19:36:13.681Z,81.30
2023-08-14T19:37:45.762Z,81.00
2023-08-14T19:39:17.578Z,82.00
2023-08-14T19:40:49.381Z,82.40
2023-08-14T19:42:21.152Z,84.30
2023-08-14T19:43:53.036Z,84.90
2023-08-14T19:45:24.982Z,85.40
2023-08-14T19:46:56.751Z,85.10
2023-08-14T19:48:28.480Z,85.60
2023-08-14T19:50:00.256Z,85.80
2023-08-14T19:51:32.616Z,86.20
2023-08-14T19:53:04.556Z,86.10
2023-08-14T19:54:36.313Z,85.50
2023-08-14T19:56:08.362Z,86.50
2023-08-14T19:57:40.152Z,85.90
2023-08-14T19:59:12.021Z,86.00
2023-08-14T20:00:43.832Z,85.70
2023-08-14T20:02:17.024Z,85.70